createdAt,value
2022-07-25T00:01:37.759Z,7.38
2022-07-25T00:04:09.452Z,7.80
2022-07-25T00:06:41.660Z,7.88
2022-07-25T00:09:12.183Z,7.60
2022-07-25T00:11:41.028Z,7.25
2022-07-25T00:14:10.431Z,7.63
2022-07-25T00:16:40.106Z,6.95
2022-07-25T00:19:08.961Z,8.40
2022-07-25T00:21:37.799Z,7.38
2022-07-25T00:24:07.602Z,8.05
2022-07-25T00:26:40.491Z,7.78
2022-07-25T00:29:09.418Z,7.40
2022-07-25T00:31:38.553Z,7.43
2022-07-25T00:34:07.722Z,6.90
2022-07-25T00:36:37.006Z,8.25
2022-07-25T00:39:06.211Z,8.18
2022-07-25T00:41:35.176Z,7.32
2022-07-25T00:44:06.290Z,7.50
2022-07-25T00:46:35.458Z,7.65
2022-07-25T00:49:04.570Z,7.65
2022-07-25T00:51:33.293Z,6.88
2022-07-25T00:54:03.040Z,8.32
2022-07-25T00:56:32.767Z,7.70
2022-07-25T00:59:01.697Z,7.63
2022-07-25T01:01:32.305Z,8.38
2022-07-25T01:04:01.340Z,8.13
2022-07-25T01:06:30.358Z,7.80
2022-07-25T01:08:59.819Z,8.05
2022-07-25T01:11:28.860Z,8.52
2022-07-25T01:13:57.810Z,8.60
2022-07-25T01:16:26.766Z,7.90
2022-07-25T01:18:57.000Z,8.52
2022-07-25T01:21:28.321Z,8.40
2022-07-25T01:23:57.289Z,8.25
2022-07-25T01:26:26.039Z,8.10
2022-07-25T01:28:55.032Z,9.02
2022-07-25T01:31:23.669Z,9.05
2022-07-25T01:33:52.321Z,9.43
2022-07-25T01:36:21.183Z,9.13
2022-07-25T01:38:51.613Z,9.18
2022-07-25T01:41:23.200Z,8.57
2022-07-25T01:43:51.989Z,9.00
2022-07-25T01:46:20.940Z,9.10
2022-07-25T01:48:49.891Z,9.38
2022-07-25T01:51:20.579Z,8.85
2022-07-25T01:53:51.053Z,9.17
2022-07-25T01:56:21.943Z,9.25
2022-07-25T01:58:51.542Z,9.63
2022-07-25T02:01:21.905Z,8.88
2022-07-25T02:03:51.102Z,8.70
2022-07-25T02:06:21.043Z,9.43
2022-07-25T02:08:51.454Z,9.23
2022-07-25T02:11:20.292Z,8.87
2022-07-25T02:13:49.095Z,9.85
2022-07-25T02:16:18.192Z,9.52
2022-07-25T02:18:47.732Z,9.23
2022-07-25T02:21:16.501Z,9.20
2022-07-25T02:23:46.247Z,9.83
2022-07-25T02:26:16.711Z,9.32
2022-07-25T02:28:45.545Z,9.85
2022-07-25T02:31:14.430Z,10.18
2022-07-25T02:33:43.162Z,9.95
2022-07-25T02:36:12.997Z,10.03
2022-07-25T02:38:42.024Z,10.48
2022-07-25T02:41:11.507Z,9.93
2022-07-25T02:43:41.978Z,10.70
2022-07-25T02:46:10.993Z,10.18
2022-07-25T02:48:39.795Z,10.73
2022-07-25T02:51:09.154Z,10.93
2022-07-25T02:53:56.692Z,10.60
2022-07-25T02:56:29.908Z,10.07
2022-07-25T02:59:00.805Z,10.27
2022-07-25T03:01:29.744Z,10.43
2022-07-25T03:03:58.382Z,12.30
2022-07-25T03:06:27.104Z,12.30
2022-07-25T03:08:55.713Z,10.40
2022-07-25T03:11:24.789Z,10.38
2022-07-25T03:13:53.529Z,9.73
2022-07-25T03:16:23.821Z,9.45
2022-07-25T03:18:52.605Z,9.27
2022-07-25T03:21:21.243Z,9.70
2022-07-25T03:24:03.716Z,9.38
2022-07-25T03:26:32.563Z,8.65
2022-07-25T03:29:01.489Z,8.90
2022-07-25T03:31:31.977Z,9.40
2022-07-25T03:34:00.955Z,9.38
2022-07-25T03:36:29.817Z,8.63
2022-07-25T03:38:58.634Z,7.70
2022-07-25T03:41:28.099Z,6.90
2022-07-25T03:43:57.210Z,6.85
2022-07-25T03:46:26.056Z,6.45
2022-07-25T03:48:56.546Z,7.03
2022-07-25T03:51:25.506Z,6.10
2022-07-25T03:54:06.853Z,5.00
2022-07-25T03:56:41.516Z,5.10
2022-07-25T03:59:14.885Z,5.15
2022-07-25T04:01:44.843Z,4.97
2022-07-25T04:04:15.722Z,5.60
2022-07-25T04:06:45.602Z,4.90
2022-07-25T04:09:15.721Z,4.70
2022-07-25T04:11:44.920Z,4.57
2022-07-25T04:14:14.394Z,4.43
2022-07-25T04:16:43.218Z,4.90
2022-07-25T04:19:12.640Z,4.18
2022-07-25T04:21:42.997Z,4.45
2022-07-25T04:24:11.826Z,4.72
2022-07-25T04:26:40.659Z,4.45
2022-07-25T04:29:09.586Z,4.45
2022-07-25T04:31:38.454Z,4.55
2022-07-25T04:34:07.785Z,4.40
2022-07-25T04:36:36.838Z,4.60
2022-07-25T04:39:07.460Z,4.32
2022-07-25T04:41:36.108Z,4.25
2022-07-25T04:44:07.647Z,4.05
2022-07-25T04:46:37.211Z,4.43
2022-07-25T04:49:06.140Z,4.32
2022-07-25T04:51:34.859Z,4.55
2022-07-25T04:54:04.304Z,4.00
2022-07-25T04:56:35.205Z,4.55
2022-07-25T04:59:06.328Z,4.68
2022-07-25T05:01:35.827Z,4.57
2022-07-25T05:04:05.126Z,4.20
2022-07-25T05:06:34.416Z,4.03
2022-07-25T05:09:03.189Z,4.55
2022-07-25T05:11:31.985Z,4.35
2022-07-25T05:14:02.315Z,4.15
2022-07-25T05:16:31.411Z,4.20
2022-07-25T05:19:00.295Z,3.90
2022-07-25T05:21:29.032Z,3.70
2022-07-25T05:23:57.798Z,3.85
2022-07-25T05:26:26.516Z,4.00
2022-07-25T05:28:55.278Z,3.58
2022-07-25T05:31:25.975Z,3.80
2022-07-25T05:33:54.936Z,4.13
2022-07-25T05:36:23.742Z,3.63
2022-07-25T05:38:52.491Z,3.60
2022-07-25T05:41:21.599Z,3.72
2022-07-25T05:43:50.421Z,4.00
2022-07-25T05:46:19.598Z,4.07
2022-07-25T05:48:50.101Z,4.22
2022-07-25T05:51:18.898Z,3.58
2022-07-25T05:53:47.785Z,4.15
2022-07-25T05:56:16.727Z,4.45
2022-07-25T05:58:45.411Z,4.05
2022-07-25T06:01:15.251Z,3.72
2022-07-25T06:03:44.212Z,3.83
2022-07-25T06:06:15.172Z,3.58
2022-07-25T06:08:44.238Z,3.78
2022-07-25T06:11:14.328Z,3.53
2022-07-25T06:13:42.922Z,3.67
2022-07-25T06:16:11.710Z,3.35
2022-07-25T06:18:40.390Z,3.78
2022-07-25T06:21:09.025Z,3.25
2022-07-25T06:23:39.402Z,3.20
2022-07-25T06:26:10.307Z,3.35
2022-07-25T06:28:39.638Z,3.63
2022-07-25T06:31:08.759Z,3.70
2022-07-25T06:33:37.718Z,3.00
2022-07-25T06:36:07.429Z,3.30
2022-07-25T06:38:36.622Z,3.03
2022-07-25T06:41:07.435Z,3.15
2022-07-25T06:43:36.617Z,2.75
2022-07-25T06:46:05.391Z,2.83
2022-07-25T06:48:34.062Z,2.70
2022-07-25T06:51:03.004Z,3.38
2022-07-25T06:53:31.837Z,2.47
2022-07-25T06:56:00.506Z,3.35
2022-07-25T06:58:30.842Z,2.90
2022-07-25T07:01:01.325Z,2.45
2022-07-25T07:03:30.389Z,2.50
2022-07-25T07:05:59.208Z,2.65
2022-07-25T07:08:27.888Z,2.60
2022-07-25T07:10:57.042Z,2.90
2022-07-25T07:13:25.893Z,2.50
2022-07-25T07:15:56.459Z,2.80
2022-07-25T07:18:25.673Z,2.80
2022-07-25T07:20:54.726Z,2.28
2022-07-25T07:23:24.662Z,2.25
2022-07-25T07:25:53.403Z,2.25
2022-07-25T07:28:22.079Z,2.17
2022-07-25T07:31:16.110Z,1.92
2022-07-25T07:33:41.677Z,2.42
2022-07-25T07:36:11.062Z,2.20
2022-07-25T07:38:40.053Z,2.90
2022-07-25T07:41:09.650Z,1.75
2022-07-25T07:43:38.591Z,2.25
2022-07-25T07:46:07.609Z,2.13
2022-07-25T07:48:37.462Z,1.92
2022-07-25T07:51:08.374Z,1.95
2022-07-25T07:53:54.613Z,1.98
2022-07-25T07:56:23.322Z,2.13
2022-07-25T07:58:52.122Z,2.00
2022-07-25T08:01:21.076Z,2.03
2022-07-25T08:03:49.880Z,2.10
2022-07-25T08:06:20.613Z,2.00
2022-07-25T08:08:49.430Z,1.85
2022-07-25T08:11:18.188Z,1.73
2022-07-25T08:13:48.188Z,2.60
2022-07-25T08:16:16.889Z,2.05
2022-07-25T08:18:45.725Z,2.10
2022-07-25T08:21:14.284Z,2.30
2022-07-25T08:23:47.338Z,1.85
2022-07-25T08:26:16.158Z,1.85
2022-07-25T08:28:45.065Z,1.80
2022-07-25T08:31:13.894Z,1.40
2022-07-25T08:33:42.916Z,1.30
2022-07-25T08:36:12.446Z,1.70
2022-07-25T08:38:41.387Z,1.80
2022-07-25T08:41:11.761Z,1.27
2022-07-25T08:43:40.974Z,1.30
2022-07-25T08:46:10.148Z,1.60
2022-07-25T08:48:40.463Z,1.58
2022-07-25T08:51:09.931Z,1.48
2022-07-25T08:53:39.016Z,1.58
2022-07-25T08:56:14.600Z,1.45
2022-07-25T08:58:47.679Z,1.50
2022-07-25T09:01:16.654Z,1.55
2022-07-25T09:03:45.630Z,1.27
2022-07-25T09:06:19.823Z,1.25
2022-07-25T09:08:56.396Z,1.23
2022-07-25T09:11:30.120Z,1.30
2022-07-25T09:14:08.994Z,1.25
2022-07-25T09:16:41.414Z,1.40
2022-07-25T09:19:12.691Z,1.30
2022-07-25T09:21:42.866Z,1.67
2022-07-25T09:24:16.127Z,1.42
2022-07-25T09:26:49.774Z,1.35
2022-07-25T09:29:34.282Z,1.42
2022-07-25T09:32:14.848Z,1.67
2022-07-25T09:34:46.083Z,1.45
2022-07-25T09:37:16.492Z,1.15
2022-07-25T09:39:48.496Z,1.25
2022-07-25T09:42:24.153Z,1.20
2022-07-25T09:45:06.717Z,1.10
2022-07-25T09:47:37.422Z,1.23
2022-07-25T09:50:07.815Z,1.45
2022-07-25T09:52:38.319Z,1.40
2022-07-25T09:55:09.489Z,1.30
2022-07-25T09:57:38.289Z,1.20
2022-07-25T10:00:10.200Z,1.20
2022-07-25T10:02:48.627Z,1.13
2022-07-25T10:05:27.191Z,1.40
2022-07-25T10:07:57.521Z,1.40
2022-07-25T10:10:28.637Z,1.23
2022-07-25T10:13:10.204Z,1.20
2022-07-25T10:15:52.264Z,1.67
2022-07-25T10:18:23.559Z,1.25
2022-07-25T10:20:54.736Z,1.33
2022-07-25T10:23:25.650Z,1.10
2022-07-25T10:26:08.555Z,1.10
2022-07-25T10:28:39.829Z,1.10
2022-07-25T10:31:38.441Z,1.45
2022-07-25T10:34:10.113Z,1.50
2022-07-25T10:36:44.927Z,0.93
2022-07-25T10:39:15.758Z,1.02
2022-07-25T10:41:45.987Z,1.45
2022-07-25T10:44:17.116Z,1.42
2022-07-25T10:46:48.579Z,1.65
2022-07-25T10:49:31.187Z,1.10
2022-07-25T10:52:03.161Z,0.95
2022-07-25T10:54:35.751Z,1.27
2022-07-25T10:57:06.495Z,0.80
2022-07-25T10:59:38.817Z,0.93
2022-07-25T11:02:16.283Z,0.88
2022-07-25T11:04:46.463Z,1.10
2022-07-25T11:07:17.745Z,1.10
2022-07-25T11:09:56.837Z,1.20
2022-07-25T11:12:25.968Z,1.10
2022-07-25T11:15:01.167Z,1.08
2022-07-25T11:17:31.403Z,0.90
2022-07-25T11:20:01.491Z,1.08
2022-07-25T11:22:31.403Z,1.17
2022-07-25T11:25:01.042Z,1.17
2022-07-25T11:27:31.994Z,1.23
2022-07-25T11:30:08.265Z,1.00
2022-07-25T11:32:43.186Z,1.10
2022-07-25T11:35:14.007Z,1.00
2022-07-25T11:37:48.661Z,1.30
2022-07-25T11:40:18.558Z,1.08
2022-07-25T11:42:49.385Z,1.10
2022-07-25T11:45:20.019Z,0.90
2022-07-25T11:47:52.082Z,1.00
2022-07-25T11:50:31.047Z,1.20
2022-07-25T11:53:04.312Z,1.58
2022-07-25T11:55:36.386Z,1.48
2022-07-25T11:58:06.709Z,1.20
2022-07-25T12:00:40.400Z,1.30
2022-07-25T12:03:17.217Z,1.10
2022-07-25T12:05:49.646Z,1.35
2022-07-25T12:08:20.387Z,1.10
2022-07-25T12:10:51.471Z,1.05
2022-07-25T12:13:25.773Z,1.13
2022-07-25T12:15:54.928Z,1.10
2022-07-25T12:18:25.090Z,1.17
2022-07-25T12:20:54.086Z,1.42
2022-07-25T12:23:22.711Z,1.52
2022-07-25T12:25:51.551Z,1.23
2022-07-25T12:28:20.145Z,0.90
2022-07-25T12:30:56.141Z,1.38
2022-07-25T12:33:26.981Z,1.00
2022-07-25T12:35:55.632Z,1.30
2022-07-25T12:38:24.172Z,1.40
2022-07-25T12:40:52.758Z,1.45
2022-07-25T12:43:21.665Z,1.52
2022-07-25T12:45:50.348Z,2.22
2022-07-25T12:48:19.156Z,1.35
2022-07-25T12:50:49.601Z,1.20
2022-07-25T12:53:18.580Z,7.65
2022-07-25T12:55:47.490Z,1.33
2022-07-25T12:58:17.938Z,1.40
2022-07-25T13:00:46.932Z,2.47
2022-07-25T13:03:15.652Z,1.85
2022-07-25T13:05:44.317Z,1.50
2022-07-25T13:08:14.276Z,1.40
2022-07-25T13:10:42.882Z,1.23
2022-07-25T13:13:11.789Z,1.35
2022-07-25T13:15:40.399Z,1.63
2022-07-25T13:18:08.972Z,0.93
2022-07-25T13:20:37.598Z,1.30
2022-07-25T13:23:06.155Z,1.40
2022-07-25T13:25:36.415Z,1.95
2022-07-25T13:28:10.781Z,1.23
2022-07-25T13:30:39.998Z,1.25
2022-07-25T13:33:10.017Z,3.10
2022-07-25T13:35:39.710Z,1.50
2022-07-25T13:38:11.214Z,1.10
2022-07-25T13:40:42.142Z,1.30
2022-07-25T13:43:11.285Z,1.52
2022-07-25T13:45:40.487Z,1.40
2022-07-25T13:50:59.481Z,1.48
2022-07-25T13:53:30.553Z,1.40
2022-07-25T13:56:01.950Z,1.50
2022-07-25T13:58:31.169Z,1.20
2022-07-25T14:01:00.455Z,1.20
2022-07-25T14:03:29.147Z,1.55
2022-07-25T14:05:57.993Z,1.10
2022-07-25T14:08:27.283Z,1.52
2022-07-25T14:10:55.873Z,1.52
2022-07-25T14:13:25.922Z,1.42
2022-07-25T14:15:54.472Z,1.30
2022-07-25T14:18:23.266Z,1.58
2022-07-25T14:20:52.111Z,1.65
2022-07-25T14:23:20.857Z,2.58
2022-07-25T14:25:49.718Z,3.45
2022-07-25T14:28:18.370Z,2.65
2022-07-25T14:30:48.814Z,2.00
2022-07-25T14:33:17.596Z,1.75
2022-07-25T14:35:46.191Z,1.27
2022-07-25T14:38:15.404Z,1.58
2022-07-25T14:40:44.752Z,1.75
2022-07-25T14:43:13.652Z,1.73
2022-07-25T14:45:42.831Z,2.35
2022-07-25T14:48:13.148Z,1.42
2022-07-25T14:50:41.761Z,1.85
2022-07-25T14:53:10.660Z,1.20
2022-07-25T14:55:39.328Z,1.10
2022-07-25T14:58:08.419Z,1.45
2022-07-25T15:00:41.857Z,2.08
2022-07-25T15:03:11.988Z,1.70
2022-07-25T15:05:42.950Z,1.83
2022-07-25T15:08:12.569Z,1.48
2022-07-25T15:10:41.142Z,1.75
2022-07-25T15:15:58.997Z,1.88
2022-07-25T15:18:29.238Z,1.77
2022-07-25T15:20:57.896Z,1.33
2022-07-25T15:23:30.220Z,1.50
2022-07-25T15:26:02.431Z,1.60
2022-07-25T15:28:33.271Z,1.45
2022-07-25T15:31:02.489Z,1.15
2022-07-25T15:33:32.620Z,1.25
2022-07-25T15:36:01.241Z,1.58
2022-07-25T15:38:30.747Z,1.63
2022-07-25T15:40:59.379Z,1.88
2022-07-25T15:43:28.165Z,2.88
2022-07-25T15:45:56.683Z,1.30
2022-07-25T15:48:27.553Z,1.67
2022-07-25T15:50:58.821Z,1.73
2022-07-25T15:53:28.426Z,4.93
2022-07-25T15:55:57.065Z,1.40
2022-07-25T15:58:26.863Z,3.40
2022-07-25T16:00:55.637Z,2.72
2022-07-25T16:03:24.271Z,1.85
2022-07-25T16:05:53.867Z,1.48
2022-07-25T16:08:23.934Z,1.52
2022-07-25T16:10:52.846Z,1.98
2022-07-25T16:13:21.502Z,2.75
2022-07-25T16:15:50.178Z,1.38
2022-07-25T16:18:18.798Z,1.45
2022-07-25T16:20:47.417Z,1.90
2022-07-25T16:23:16.079Z,8.18
2022-07-25T16:25:46.023Z,1.60
2022-07-25T16:28:14.643Z,1.55
2022-07-25T16:30:43.160Z,2.33
2022-07-25T16:33:11.843Z,1.60
2022-07-25T16:35:40.581Z,1.45
2022-07-25T16:38:09.524Z,1.45
2022-07-25T16:40:38.184Z,1.50
2022-07-25T16:43:08.333Z,1.58
2022-07-25T16:45:37.879Z,1.60
2022-07-25T16:48:07.347Z,2.00
2022-07-25T16:50:35.999Z,1.40
2022-07-25T16:53:04.561Z,1.40
2022-07-25T16:55:33.356Z,1.38
2022-07-25T16:58:02.147Z,1.30
2022-07-25T17:00:32.070Z,1.30
2022-07-25T17:03:01.079Z,1.40
2022-07-25T17:05:29.714Z,1.50
2022-07-25T17:07:59.875Z,1.48
2022-07-25T17:10:28.806Z,1.63
2022-07-25T17:12:57.663Z,1.67
2022-07-25T17:15:26.360Z,1.70
2022-07-25T17:17:56.246Z,1.70
2022-07-25T17:20:24.952Z,1.45
2022-07-25T17:22:53.525Z,2.00
2022-07-25T17:25:22.269Z,2.30
2022-07-25T17:27:50.804Z,1.95
2022-07-25T17:30:19.579Z,1.80
2022-07-25T17:32:48.368Z,2.03
2022-07-25T17:35:19.460Z,1.70
2022-07-25T17:37:48.346Z,2.50
2022-07-25T17:40:17.214Z,2.58
2022-07-25T17:42:47.674Z,1.55
2022-07-25T17:45:17.234Z,1.70
2022-07-25T17:47:46.106Z,2.10
2022-07-25T17:50:16.835Z,2.10
2022-07-25T17:52:46.771Z,2.20
2022-07-25T17:55:15.348Z,1.73
2022-07-25T17:57:44.270Z,1.58
2022-07-25T18:00:14.496Z,2.05
2022-07-25T18:02:43.485Z,3.20
2022-07-25T18:05:12.215Z,2.75
2022-07-25T18:07:45.143Z,3.95
2022-07-25T18:10:16.518Z,2.00
2022-07-25T18:12:45.614Z,3.20
2022-07-25T18:15:15.492Z,2.20
2022-07-25T18:17:44.161Z,1.90
2022-07-25T18:20:14.009Z,1.75
2022-07-25T18:22:42.703Z,2.85
2022-07-25T18:25:13.059Z,2.58
2022-07-25T18:27:44.301Z,2.88
2022-07-25T18:30:14.099Z,3.83
2022-07-25T18:32:43.126Z,4.20
2022-07-25T18:35:12.050Z,3.60
2022-07-25T18:37:40.945Z,3.88
2022-07-25T18:40:10.916Z,2.67
2022-07-25T18:42:40.186Z,2.25
2022-07-25T18:45:11.819Z,2.70
2022-07-25T18:47:40.899Z,3.15
2022-07-25T18:50:10.594Z,2.55
2022-07-25T18:52:39.513Z,3.13
2022-07-25T18:55:10.170Z,2.50
2022-07-25T18:57:38.795Z,2.17
2022-07-25T19:00:10.762Z,2.60
2022-07-25T19:02:39.748Z,2.80
2022-07-25T19:05:10.012Z,3.03
2022-07-25T19:07:40.063Z,2.85
2022-07-25T19:10:09.150Z,3.28
2022-07-25T19:12:37.845Z,3.90
2022-07-25T19:15:07.746Z,4.95
2022-07-25T19:17:38.265Z,5.45
2022-07-25T19:20:08.239Z,4.60
2022-07-25T19:22:36.812Z,4.30
2022-07-25T19:25:08.411Z,3.55
2022-07-25T19:27:37.147Z,3.67
2022-07-25T19:30:07.016Z,3.10
2022-07-25T19:32:37.234Z,3.30
2022-07-25T19:35:07.363Z,2.50
2022-07-25T19:37:35.980Z,2.40
2022-07-25T19:40:06.393Z,2.33
2022-07-25T19:42:35.742Z,3.13
2022-07-25T19:45:04.804Z,3.42
2022-07-25T19:47:33.340Z,2.80
2022-07-25T19:50:03.311Z,2.50
2022-07-25T19:52:32.049Z,2.30
2022-07-25T19:55:00.634Z,2.70
2022-07-25T19:57:29.525Z,2.45
2022-07-25T19:59:58.225Z,2.70
2022-07-25T20:02:26.966Z,2.60
2022-07-25T20:04:55.634Z,2.60
2022-07-25T20:07:25.669Z,2.92
2022-07-25T20:09:54.259Z,2.47
2022-07-25T20:12:23.251Z,2.40
2022-07-25T20:14:51.834Z,2.50
2022-07-25T20:17:20.385Z,2.75
2022-07-25T20:19:48.921Z,2.33
2022-07-25T20:22:17.450Z,2.30
2022-07-25T20:24:47.486Z,2.47
2022-07-25T20:27:16.141Z,3.00
2022-07-25T20:29:44.752Z,2.20
2022-07-25T20:32:13.378Z,2.75
2022-07-25T20:34:41.903Z,2.50
2022-07-25T20:37:10.429Z,2.53
2022-07-25T20:39:39.033Z,2.25
2022-07-25T20:42:09.473Z,2.38
2022-07-25T20:44:37.989Z,2.33
2022-07-25T20:47:06.721Z,2.20
2022-07-25T20:49:36.667Z,2.47
2022-07-25T20:52:05.738Z,2.83
2022-07-25T20:54:34.420Z,2.47
2022-07-25T20:57:03.052Z,2.33
2022-07-25T20:59:33.223Z,2.97
2022-07-25T21:02:01.894Z,2.67
2022-07-25T21:04:30.480Z,2.70
2022-07-25T21:06:59.034Z,2.35
2022-07-25T21:09:32.524Z,2.88
2022-07-25T21:12:02.461Z,2.78
2022-07-25T21:14:32.531Z,2.72
2022-07-25T21:17:01.214Z,2.42
2022-07-25T21:19:30.252Z,2.15
2022-07-25T21:21:58.785Z,2.63
2022-07-25T21:24:27.344Z,2.40
2022-07-25T21:26:55.994Z,2.50
2022-07-25T21:29:24.572Z,2.63
2022-07-25T21:31:54.581Z,3.00
2022-07-25T21:34:23.317Z,2.42
2022-07-25T21:36:51.867Z,2.50
2022-07-25T21:39:20.449Z,3.28
2022-07-25T21:41:49.038Z,2.88
2022-07-25T21:44:24.431Z,3.00
2022-07-25T21:46:54.565Z,3.53
2022-07-25T21:49:42.100Z,3.08
2022-07-25T21:52:13.419Z,2.33
2022-07-25T21:54:42.889Z,2.30
2022-07-25T21:57:13.896Z,2.40
2022-07-25T21:59:43.160Z,2.45
2022-07-25T22:02:13.903Z,2.60
2022-07-25T22:04:42.559Z,4.07
2022-07-25T22:07:11.109Z,3.65
2022-07-25T22:09:39.724Z,2.38
2022-07-25T22:12:09.340Z,2.47
2022-07-25T22:14:38.114Z,2.67
2022-07-25T22:17:07.001Z,2.88
2022-07-25T22:19:37.168Z,2.90
2022-07-25T22:22:07.287Z,2.85
2022-07-25T22:24:36.209Z,3.08
2022-07-25T22:27:05.434Z,3.40
2022-07-25T22:29:34.404Z,3.00
2022-07-25T22:32:03.101Z,2.95
2022-07-25T22:34:31.837Z,3.30
2022-07-25T22:37:01.802Z,3.10
2022-07-25T22:39:30.476Z,2.92
2022-07-25T22:41:59.054Z,2.80
2022-07-25T22:44:28.608Z,3.20
2022-07-25T22:46:57.124Z,3.10
2022-07-25T22:49:26.251Z,3.03
2022-07-25T22:51:55.106Z,2.88
2022-07-25T22:54:25.950Z,2.80
2022-07-25T22:56:54.600Z,2.80
2022-07-25T22:59:23.669Z,2.97
2022-07-25T23:01:52.726Z,2.63
2022-07-25T23:04:21.582Z,3.50
2022-07-25T23:06:50.553Z,2.30
2022-07-25T23:09:19.341Z,2.97
2022-07-25T23:11:49.851Z,2.40
2022-07-25T23:14:18.619Z,2.85
2022-07-25T23:17:08.230Z,3.03
2022-07-25T23:19:36.972Z,2.97
2022-07-25T23:22:05.811Z,2.78
2022-07-25T23:24:37.908Z,2.78
2022-07-25T23:27:09.217Z,2.80
2022-07-25T23:29:38.324Z,2.72
2022-07-25T23:32:08.270Z,2.78
2022-07-25T23:34:37.857Z,2.63
2022-07-25T23:37:06.826Z,3.15
2022-07-25T23:39:35.672Z,2.92
2022-07-25T23:42:04.709Z,3.40
2022-07-25T23:44:35.247Z,2.70
2022-07-25T23:47:07.092Z,3.00
2022-07-25T23:49:39.339Z,2.75
2022-07-25T23:52:08.227Z,2.90
2022-07-25T23:54:38.429Z,2.95
2022-07-25T23:57:07.263Z,3.13
2022-07-25T23:59:37.682Z,3.85
